2016 MAC Jingle Bell 5K Walk/Run 5K Results

2016 MAC Jingle Bell 5K Walk/Run 5K Results
Gender
Pos
Overall
Pos
Name Race No Finish
Time
Pace
(3.1 Miles)
High School
1 1 Christian CASTELLANOS 524 00:19:13 6:12 min/m
2 2 Joshua CASTELLANOS 525 00:19:49 6:23 min/m
3 3 Cannon BARRY 542 00:19:59 6:26 min/m
4 4 Rey VILLEGAS JR 519 00:20:21 6:34 min/m
5 5 Hunter BALLARD 442 00:21:06 6:48 min/m
7 7 Xavier GUERRA 509 00:21:39 6:59 min/m
8 8 Paul HOGGARD 487 00:21:53 7:03 min/m
10 10 Alvin VALLEZ 403 00:22:56 7:23 min/m
11 11 Richard MARTINEZ 489 00:22:56 7:24 min/m
14 15 Joseph LIERAS 453 00:23:22 7:32 min/m
15 16 Trevor RODGERS 505 00:23:32 7:35 min/m
16 18 Luis FLORES 469 00:24:09 7:47 min/m
18 22 Gregory BARBA 440 00:24:37 7:56 min/m
19 23 Brandon GROFF 415 00:24:38 7:56 min/m
21 25 Eric SLEDGE 437 00:25:25 8:11 min/m
22 30 Michael ANDRES 476 00:26:02 8:23 min/m
24 33 Juan HERNANDEZ 518 00:26:21 8:30 min/m
10 34 Jayleen AVALOS 449 00:26:31 8:33 min/m
11 36 Mykayla COSTELLO 478 00:27:19 8:48 min/m
14 40 Kamea BARTHOLOMEW 456 00:28:25 9:10 min/m
16 42 Christelle BIRDY 422 00:28:29 9:11 min/m
17 43 Myranda PALACIOS 479 00:28:51 9:18 min/m
19 45 Daniela MUNOZ 427 00:29:23 9:28 min/m
20 46 Emily DAVID 436 00:29:35 9:32 min/m
25 52 Carina RODRIGUEZ 420 00:29:40 9:34 min/m
26 54 Marissa FLORES 541 00:30:29 9:50 min/m
29 59 Ana BARBA 530 00:31:10 10:03 min/m
32 63 Isabella LIMON 443 00:34:05 10:59 min/m
33 64 Angeline SCHNABEL 527 00:34:16 11:03 min/m
37 68 Ashton WOODS 411 00:35:18 11:23 min/m
38 69 Layla FELTON 464 00:35:20 11:24 min/m
39 70 Stephanie WITT 499 00:35:23 11:24 min/m
41 72 Jaydyn FOSTER 445 00:35:51 11:33 min/m
45 76 Ava SCHWENINGER 413 00:37:39 12:08 min/m
57 94 Abigail BEHRING 401 00:44:43 14:25 min/m
59 97 Stephanie WITT 496 00:45:14 14:35 min/m
40 103 JROTC 450 00:51:22 16:34 min/m
66 107 Ysabel MORRIS 511 00:52:58 17:05 min/m
68 109 Shelby SANTOS 497 00:54:35 17:36 min/m
70 111 Ashton WOODS 407 01:00:01 19:21 min/m
Middle School
1 13 Sophia CARROLL 498 00:23:02 7:25 min/m
3 20 Arden SCHWENINGER 408 00:24:30 7:54 min/m
4 21 Bryley WESTFALL 520 00:24:30 7:54 min/m
7 28 Alissa MURPHY 529 00:25:50 8:20 min/m
8 29 Brooke WESTFALL 521 00:25:51 8:20 min/m
31 62 Cadence COMPEAN 419 00:33:45 10:53 min/m
32 78 Jewlian GARCIA 451 00:37:56 12:14 min/m
Elementary
18 44 Ashland LEMBCKE 406 00:29:19 9:27 min/m
36 67 Olivia SCHNABEL 528 00:35:17 11:23 min/m
33 79 Dominic DELAWYER 432 00:38:18 12:21 min/m
56 91 Kaylen LEMBCKE 459 00:43:16 13:57 min/m
37 93 Jonathan CASTELLANOS 532 00:44:43 14:25 min/m
38 95 Nash DELAWYER 481 00:44:51 14:28 min/m
63 102 Mikaela GARCIA 477 00:50:54 16:25 min/m
Ages 20 - 30
9 9 Tommy THOMPSON 537 00:21:53 7:03 min/m
12 12 Arturo LIMON 409 00:22:58 7:24 min/m
2 17 Sandy PEREZ 490 00:23:52 7:42 min/m
62 101 Thayer RILEY 503 00:50:05 16:09 min/m
Ages 31 - 45
6 6 Rey VILLEGAS 488 00:21:25 6:54 min/m
5 26 Deana COLEMAN 428 00:25:37 8:15 min/m
9 31 Christine SAENZ 534 00:26:19 8:29 min/m
25 35 Ernesto COMPEAN 438 00:26:44 8:37 min/m
13 39 Leticia VASQUEZ 466 00:27:56 9:00 min/m
15 41 Ana MARTINEZ 405 00:28:27 9:10 min/m
24 50 Debora REYNA 429 00:29:39 9:34 min/m
28 53 Bryan CASTELLO 533 00:30:17 9:46 min/m
30 57 Anthony SCHNABEL 526 00:30:48 9:56 min/m
30 60 Christina PERALES 425 00:31:10 10:03 min/m
31 61 Matthew COMPTON 474 00:33:31 10:48 min/m
34 65 Christina MOULTRIE 423 00:34:58 11:16 min/m
40 71 Kim FOSTER 463 00:35:51 11:33 min/m
43 74 Elizabeth CARDENAS 538 00:36:36 11:48 min/m
44 75 Meredith PARKS 475 00:37:09 11:59 min/m
46 77 Kasey KORTH-PILES 457 00:37:55 12:14 min/m
48 81 Marisa GARCIA 470 00:40:24 13:02 min/m
49 82 Deborah REYNA 421 00:41:19 13:19 min/m
50 83 Elizabeth HAWKINS 434 00:41:20 13:20 min/m
53 86 Veronica OLIVARES 507 00:41:33 13:24 min/m
34 87 Oscar FARIAS 484 00:41:34 13:24 min/m
55 90 Jj JOHNSON 452 00:42:56 13:51 min/m
36 92 Greg LEMBCKE 441 00:43:16 13:57 min/m
58 96 Kim DELAWYER 462 00:45:02 14:31 min/m
41 104 Westley MORRIS 508 00:52:54 17:04 min/m
65 106 Adrianne MORRIS 402 00:52:57 17:04 min/m
67 108 Yesenia COMPEAN 510 00:54:14 17:29 min/m
69 110 Brenda SANTOS 416 00:54:49 17:41 min/m
71 112 Leah WHETSTONE 465 01:00:09 19:24 min/m
Ages 46 +
13 14 Ed CURRAN 433 00:23:06 7:27 min/m
17 19 Loth VASQUEZ 468 00:24:28 7:53 min/m
20 24 James LUSSIER 446 00:25:04 8:05 min/m
6 27 Yvonne LUSSIER 512 00:25:47 8:19 min/m
23 32 David JERNIGAN 543 00:26:20 8:29 min/m
26 37 Brian CARROLL 417 00:27:26 8:51 min/m
21 47 Sarah NAWROCHI 491 00:29:36 9:33 min/m
22 48 Deborah WITT 430 00:29:36 9:33 min/m
27 51 Shawn JORDAN 493 00:29:40 9:34 min/m
29 56 Jeff RABLIN 544 00:30:32 9:51 min/m
35 66 Patricia CISNEROS 485 00:35:06 11:19 min/m
42 73 Christine GONZALEZ 424 00:36:31 11:47 min/m
47 80 Sharon FALK 495 00:40:19 13:00 min/m
51 84 Tracey NORMENT 504 00:41:21 13:20 min/m
52 85 Janie MARTINEZ 447 00:41:25 13:21 min/m
35 89 Terry RAMIREZ 522 00:42:52 13:49 min/m
60 98 Beatrice ALCORTA 531 00:46:31 15:00 min/m
39 100 Dan CARDENAS 539 00:48:25 15:37 min/m
64 105 Kathy BARRICK 458 00:52:55 17:04 min/m
No Age
12 38 Joni CORTEZ 439 00:27:39 8:55 min/m
23 49 Martina MAULDIN 471 00:29:37 9:33 min/m
27 55 Michelle LUGO 540 00:30:31 9:50 min/m
28 58 Patricia RICH 535 00:31:08 10:02 min/m
54 88 Va MODEROW 523 00:42:50 13:49 min/m
61 99 Sheila BERRY 536 00:46:33 15:01 min/m
Race timing by RRPTiming.com!

© copyright 2013, RRPTiming.com. RRPTiming is a Redemption Race Productions site. Website by Rich.